Warning: Javascript must be enabled to use all the features on this page!


Page Loading - Please Wait...

Click to hideNews Bulletins

Peak Streamflow for the Nation

USGS 10311100 KINGS CYN CK NR CARSON CITY, NV

Carson City, Nevada
Hydrologic Unit Code 16050201
Latitude  39°09'14", Longitude 119°48'25" NAD27
Drainage area 4.06  square miles
Gage datum 5,180 feet above NGVD29
Output formats
Table
Graph
Tab-separated file
peakfq (watstore) format
Reselect output format
Water
Year
Date Gage
Height
(feet)
Stream-
flow
(cfs)
1977 1977-02-21 4.32 7.505
1978 1978-03-04 4.33 10.05
1979 1979-01-11 4.81 32.05
1980 1980-01-13 4.83 30.05
1981 1981-02-14 4.18 4.905
1982 1982-02-15 4.95 48.05
1983 1983-07-15 4.62 30.05
1984 1983-11-17 4.64 35.05
1985 1984-11-27 4.18 4.905
1986 1986-02-19 5.44 1505
1987 1986-10-02 4.04 3.805
1988 1987-10-29 3.86 1.205
1989 1989-03-11 4.12 6.205
1990 1990-02-16 3.90 1.305
1991 1991-03-04 4.13 2.205
1992 1992-05-22 4.33 8.505
1993 1993-03-17 4.37 20.05
1994 1993-11-15 4.09 2.105
1995 1995-03-10 4.57 19.06
1996 1996-03-03 4.42 13.06
1997 1997-01-02 5.44 2766
1998 1998-03-24 4.69 15.06
1999 1999-02-07 4.53 13.06
2000 2000-02-14 4.19 5.306
2001 2000-10-11 3.92 2.206
2002 2001-11-24 4.01 2.306
2003 2002-11-08 4.05 3.106
2004 2004-02-16 3.99 2.206
2005 2005-07-29 4.23 5.906
2006 2005-12-31 5.22 87.06
2007 2007-01-06 3.83 1.506
2008 2008-01-04 4.10 4.006
2009 2009-03-02 3.84 1.206
2010 2010-02-26 3.88 2.006
2011 2011-03-16 4.66 19.06
2012 2012-01-21 4.18 5.106
2013 2012-12-02 4.07 3.106
2014 2014-02-09 4.21 5.606
2015 2015-02-08 3.87 1.406
2016 2016-01-30 4.40 22.06
2017 2017-02-09 5.142 1266
2018 2018-03-22 4.59 28.46
2019 2019-02-14 4.38 8.556
2020 2019-12-07 4.13 4.126
2021 2021-02-12 3.902 3.876
?
  Peak Gage-Height Qualification Codes.
?
  Peak Streamflow Qualification Codes.